sensor_id;sensor_type;location;lat;lon;timestamp;P1;durP1;ratioP1;P2;durP2;ratioP2
65387;SDS011;51992;53.528;49.474;2022-07-22T00:02:21;13.98;;;6.47;;
65387;SDS011;51992;53.528;49.474;2022-07-22T00:04:47;16.98;;;7.00;;
65387;SDS011;51992;53.528;49.474;2022-07-22T00:07:13;20.45;;;6.82;;
65387;SDS011;51992;53.528;49.474;2022-07-22T00:09:39;16.58;;;6.20;;
65387;SDS011;51992;53.528;49.474;2022-07-22T00:12:05;15.35;;;7.05;;
65387;SDS011;51992;53.528;49.474;2022-07-22T00:14:30;18.40;;;6.60;;
65387;SDS011;51992;53.528;49.474;2022-07-22T00:16:56;13.48;;;6.38;;
65387;SDS011;51992;53.528;49.474;2022-07-22T00:19:22;15.85;;;6.60;;
65387;SDS011;51992;53.528;49.474;2022-07-22T00:21:50;14.15;;;6.15;;
65387;SDS011;51992;53.528;49.474;2022-07-22T00:24:16;13.10;;;5.35;;
65387;SDS011;51992;53.528;49.474;2022-07-22T00:26:41;11.20;;;4.97;;
65387;SDS011;51992;53.528;49.474;2022-07-22T00:29:07;10.77;;;4.78;;
65387;SDS011;51992;53.528;49.474;2022-07-22T00:31:33;16.30;;;4.47;;
65387;SDS011;51992;53.528;49.474;2022-07-22T00:33:59;7.60;;;4.35;;
65387;SDS011;51992;53.528;49.474;2022-07-22T00:36:26;10.02;;;3.83;;
65387;SDS011;51992;53.528;49.474;2022-07-22T00:38:52;7.97;;;3.63;;
65387;SDS011;51992;53.528;49.474;2022-07-22T00:41:18;14.80;;;4.07;;
65387;SDS011;51992;53.528;49.474;2022-07-22T00:46:28;10.30;;;3.63;;
65387;SDS011;51992;53.528;49.474;2022-07-22T00:48:54;11.27;;;3.47;;
65387;SDS011;51992;53.528;49.474;2022-07-22T00:51:21;8.20;;;3.40;;
65387;SDS011;51992;53.528;49.474;2022-07-22T00:53:47;12.02;;;3.90;;
65387;SDS011;51992;53.528;49.474;2022-07-22T00:56:14;11.07;;;3.90;;
65387;SDS011;51992;53.528;49.474;2022-07-22T00:58:40;5.38;;;3.40;;
65387;SDS011;51992;53.528;49.474;2022-07-22T01:01:06;7.75;;;3.35;;
65387;SDS011;51992;53.528;49.474;2022-07-22T01:03:31;6.15;;;3.00;;
65387;SDS011;51992;53.528;49.474;2022-07-22T01:05:57;6.13;;;2.92;;
65387;SDS011;51992;53.528;49.474;2022-07-22T01:08:23;8.63;;;3.15;;
65387;SDS011;51992;53.528;49.474;2022-07-22T01:10:49;7.38;;;3.53;;
65387;SDS011;51992;53.528;49.474;2022-07-22T01:13:15;10.25;;;3.53;;
65387;SDS011;51992;53.528;49.474;2022-07-22T01:15:40;6.93;;;3.35;;
65387;SDS011;51992;53.528;49.474;2022-07-22T01:18:06;11.77;;;3.95;;
65387;SDS011;51992;53.528;49.474;2022-07-22T01:20:32;9.73;;;3.15;;
65387;SDS011;51992;53.528;49.474;2022-07-22T01:22:59;11.13;;;3.20;;
65387;SDS011;51992;53.528;49.474;2022-07-22T01:25:24;7.53;;;2.80;;
65387;SDS011;51992;53.528;49.474;2022-07-22T01:27:50;3.10;;;2.33;;
65387;SDS011;51992;53.528;49.474;2022-07-22T01:30:17;5.00;;;2.80;;
65387;SDS011;51992;53.528;49.474;2022-07-22T01:32:42;5.15;;;2.50;;
65387;SDS011;51992;53.528;49.474;2022-07-22T01:35:08;3.17;;;2.40;;
65387;SDS011;51992;53.528;49.474;2022-07-22T01:37:34;4.38;;;2.22;;
65387;SDS011;51992;53.528;49.474;2022-07-22T01:40:00;8.90;;;3.03;;
65387;SDS011;51992;53.528;49.474;2022-07-22T01:42:26;6.57;;;2.70;;
65387;SDS011;51992;53.528;49.474;2022-07-22T01:44:51;6.82;;;2.55;;
65387;SDS011;51992;53.528;49.474;2022-07-22T01:47:17;12.60;;;3.28;;
65387;SDS011;51992;53.528;49.474;2022-07-22T01:49:43;7.30;;;2.80;;
65387;SDS011;51992;53.528;49.474;2022-07-22T01:52:09;4.25;;;2.55;;
65387;SDS011;51992;53.528;49.474;2022-07-22T01:54:35;6.43;;;2.85;;
65387;SDS011;51992;53.528;49.474;2022-07-22T01:57:01;6.25;;;2.72;;
65387;SDS011;51992;53.528;49.474;2022-07-22T01:59:27;8.90;;;2.97;;
65387;SDS011;51992;53.528;49.474;2022-07-22T02:01:53;12.93;;;3.50;;
65387;SDS011;51992;53.528;49.474;2022-07-22T02:04:19;6.05;;;2.78;;
65387;SDS011;51992;53.528;49.474;2022-07-22T02:06:45;8.35;;;3.00;;
65387;SDS011;51992;53.528;49.474;2022-07-22T02:09:10;6.35;;;3.10;;
65387;SDS011;51992;53.528;49.474;2022-07-22T02:11:36;13.48;;;3.40;;
65387;SDS011;51992;53.528;49.474;2022-07-22T02:14:02;6.50;;;2.85;;
65387;SDS011;51992;53.528;49.474;2022-07-22T02:16:28;6.53;;;2.70;;
65387;SDS011;51992;53.528;49.474;2022-07-22T02:18:53;9.25;;;3.15;;
65387;SDS011;51992;53.528;49.474;2022-07-22T02:21:20;8.50;;;3.20;;
65387;SDS011;51992;53.528;49.474;2022-07-22T02:23:46;13.07;;;4.07;;
65387;SDS011;51992;53.528;49.474;2022-07-22T02:26:12;7.38;;;3.50;;
65387;SDS011;51992;53.528;49.474;2022-07-22T02:28:37;9.68;;;3.38;;
65387;SDS011;51992;53.528;49.474;2022-07-22T02:31:03;11.15;;;3.50;;
65387;SDS011;51992;53.528;49.474;2022-07-22T02:33:29;8.25;;;3.58;;
65387;SDS011;51992;53.528;49.474;2022-07-22T02:35:55;8.25;;;2.85;;
65387;SDS011;51992;53.528;49.474;2022-07-22T02:38:21;7.78;;;2.90;;
65387;SDS011;51992;53.528;49.474;2022-07-22T02:40:47;5.40;;;2.15;;
65387;SDS011;51992;53.528;49.474;2022-07-22T02:43:13;5.43;;;2.10;;
65387;SDS011;51992;53.528;49.474;2022-07-22T02:45:38;5.35;;;1.90;;
65387;SDS011;51992;53.528;49.474;2022-07-22T02:48:04;10.25;;;2.33;;
65387;SDS011;51992;53.528;49.474;2022-07-22T02:50:30;4.55;;;1.70;;
65387;SDS011;51992;53.528;49.474;2022-07-22T02:52:58;9.35;;;2.90;;
65387;SDS011;51992;53.528;49.474;2022-07-22T02:55:24;7.93;;;2.10;;
65387;SDS011;51992;53.528;49.474;2022-07-22T02:57:50;8.82;;;2.10;;
65387;SDS011;51992;53.528;49.474;2022-07-22T03:00:16;6.97;;;2.10;;
65387;SDS011;51992;53.528;49.474;2022-07-22T03:02:41;8.07;;;2.33;;
65387;SDS011;51992;53.528;49.474;2022-07-22T03:05:08;8.05;;;2.30;;
65387;SDS011;51992;53.528;49.474;2022-07-22T03:07:34;6.97;;;2.10;;
65387;SDS011;51992;53.528;49.474;2022-07-22T03:09:59;7.38;;;2.22;;
65387;SDS011;51992;53.528;49.474;2022-07-22T03:12:25;7.53;;;2.15;;
65387;SDS011;51992;53.528;49.474;2022-07-22T03:14:51;18.65;;;2.70;;
65387;SDS011;51992;53.528;49.474;2022-07-22T03:17:17;12.05;;;2.30;;
65387;SDS011;51992;53.528;49.474;2022-07-22T03:19:42;6.35;;;2.00;;
65387;SDS011;51992;53.528;49.474;2022-07-22T03:22:08;5.10;;;1.60;;
65387;SDS011;51992;53.528;49.474;2022-07-22T03:24:34;5.90;;;1.70;;
65387;SDS011;51992;53.528;49.474;2022-07-22T03:26:59;6.15;;;1.98;;
65387;SDS011;51992;53.528;49.474;2022-07-22T03:29:25;6.47;;;2.45;;
65387;SDS011;51992;53.528;49.474;2022-07-22T03:31:51;10.20;;;2.65;;
65387;SDS011;51992;53.528;49.474;2022-07-22T03:34:17;10.15;;;2.10;;
65387;SDS011;51992;53.528;49.474;2022-07-22T03:36:42;9.38;;;2.05;;
65387;SDS011;51992;53.528;49.474;2022-07-22T03:39:08;5.38;;;1.75;;
65387;SDS011;51992;53.528;49.474;2022-07-22T03:41:34;5.90;;;1.90;;
65387;SDS011;51992;53.528;49.474;2022-07-22T03:44:00;9.10;;;2.00;;
65387;SDS011;51992;53.528;49.474;2022-07-22T03:46:25;9.95;;;2.15;;
65387;SDS011;51992;53.528;49.474;2022-07-22T03:48:51;4.75;;;1.73;;
65387;SDS011;51992;53.528;49.474;2022-07-22T03:51:17;3.97;;;1.70;;
65387;SDS011;51992;53.528;49.474;2022-07-22T03:53:42;18.75;;;2.90;;
65387;SDS011;51992;53.528;49.474;2022-07-22T03:56:09;16.98;;;2.60;;
65387;SDS011;51992;53.528;49.474;2022-07-22T03:58:34;10.15;;;2.67;;
65387;SDS011;51992;53.528;49.474;2022-07-22T04:01:00;5.43;;;1.73;;
65387;SDS011;51992;53.528;49.474;2022-07-22T04:03:26;7.00;;;2.00;;
65387;SDS011;51992;53.528;49.474;2022-07-22T04:05:51;4.43;;;1.92;;
65387;SDS011;51992;53.528;49.474;2022-07-22T04:08:17;8.88;;;2.00;;
65387;SDS011;51992;53.528;49.474;2022-07-22T04:10:43;6.25;;;2.00;;
65387;SDS011;51992;53.528;49.474;2022-07-22T04:13:09;13.68;;;2.10;;
65387;SDS011;51992;53.528;49.474;2022-07-22T04:15:35;7.60;;;2.10;;
65387;SDS011;51992;53.528;49.474;2022-07-22T04:18:01;10.65;;;2.30;;
65387;SDS011;51992;53.528;49.474;2022-07-22T04:20:27;10.15;;;2.60;;
65387;SDS011;51992;53.528;49.474;2022-07-22T04:22:53;10.82;;;2.58;;
65387;SDS011;51992;53.528;49.474;2022-07-22T04:25:19;12.68;;;3.05;;
65387;SDS011;51992;53.528;49.474;2022-07-22T04:27:44;13.65;;;3.42;;
65387;SDS011;51992;53.528;49.474;2022-07-22T04:30:10;24.15;;;3.30;;
65387;SDS011;51992;53.528;49.474;2022-07-22T04:32:36;14.65;;;2.60;;
65387;SDS011;51992;53.528;49.474;2022-07-22T04:35:02;17.45;;;3.58;;
65387;SDS011;51992;53.528;49.474;2022-07-22T04:37:28;20.45;;;3.33;;
65387;SDS011;51992;53.528;49.474;2022-07-22T04:39:54;7.80;;;2.58;;
65387;SDS011;51992;53.528;49.474;2022-07-22T04:42:20;9.52;;;2.83;;
65387;SDS011;51992;53.528;49.474;2022-07-22T04:44:45;13.50;;;2.78;;
65387;SDS011;51992;53.528;49.474;2022-07-22T04:47:12;14.27;;;2.92;;
65387;SDS011;51992;53.528;49.474;2022-07-22T04:49:37;6.97;;;2.40;;
65387;SDS011;51992;53.528;49.474;2022-07-22T04:52:03;14.27;;;2.85;;
65387;SDS011;51992;53.528;49.474;2022-07-22T04:54:29;5.85;;;2.30;;
65387;SDS011;51992;53.528;49.474;2022-07-22T04:56:55;7.75;;;2.35;;
65387;SDS011;51992;53.528;49.474;2022-07-22T04:59:20;12.90;;;2.50;;
65387;SDS011;51992;53.528;49.474;2022-07-22T05:01:46;17.40;;;3.35;;
65387;SDS011;51992;53.528;49.474;2022-07-22T05:04:12;10.65;;;2.25;;
65387;SDS011;51992;53.528;49.474;2022-07-22T05:06:38;6.65;;;2.47;;
65387;SDS011;51992;53.528;49.474;2022-07-22T05:09:04;14.13;;;2.38;;
65387;SDS011;51992;53.528;49.474;2022-07-22T05:11:29;11.70;;;2.53;;
65387;SDS011;51992;53.528;49.474;2022-07-22T05:13:55;11.30;;;2.17;;
65387;SDS011;51992;53.528;49.474;2022-07-22T05:16:21;10.25;;;2.60;;
65387;SDS011;51992;53.528;49.474;2022-07-22T05:18:47;7.22;;;2.10;;
65387;SDS011;51992;53.528;49.474;2022-07-22T05:21:12;5.60;;;2.55;;
65387;SDS011;51992;53.528;49.474;2022-07-22T05:23:38;8.88;;;2.25;;
65387;SDS011;51992;53.528;49.474;2022-07-22T05:26:04;10.55;;;2.85;;
65387;SDS011;51992;53.528;49.474;2022-07-22T05:28:30;8.50;;;2.38;;
65387;SDS011;51992;53.528;49.474;2022-07-22T05:30:56;10.18;;;3.42;;
65387;SDS011;51992;53.528;49.474;2022-07-22T05:33:22;8.90;;;2.70;;
65387;SDS011;51992;53.528;49.474;2022-07-22T05:35:47;13.32;;;3.15;;
65387;SDS011;51992;53.528;49.474;2022-07-22T05:38:13;5.25;;;2.83;;
65387;SDS011;51992;53.528;49.474;2022-07-22T05:40:39;7.30;;;2.63;;
65387;SDS011;51992;53.528;49.474;2022-07-22T05:43:05;5.65;;;2.10;;
65387;SDS011;51992;53.528;49.474;2022-07-22T05:45:30;12.13;;;2.55;;
65387;SDS011;51992;53.528;49.474;2022-07-22T05:47:56;9.85;;;2.28;;
65387;SDS011;51992;53.528;49.474;2022-07-22T05:50:22;6.60;;;1.73;;
65387;SDS011;51992;53.528;49.474;2022-07-22T05:52:48;3.65;;;1.88;;
65387;SDS011;51992;53.528;49.474;2022-07-22T05:55:14;10.43;;;2.20;;
65387;SDS011;51992;53.528;49.474;2022-07-22T05:57:39;10.77;;;3.10;;
65387;SDS011;51992;53.528;49.474;2022-07-22T06:00:05;9.70;;;2.33;;
65387;SDS011;51992;53.528;49.474;2022-07-22T06:02:32;9.43;;;2.03;;
65387;SDS011;51992;53.528;49.474;2022-07-22T06:04:57;9.10;;;2.40;;
65387;SDS011;51992;53.528;49.474;2022-07-22T06:07:26;6.93;;;2.35;;
65387;SDS011;51992;53.528;49.474;2022-07-22T06:09:51;8.23;;;2.60;;
65387;SDS011;51992;53.528;49.474;2022-07-22T06:12:17;11.63;;;2.70;;
65387;SDS011;51992;53.528;49.474;2022-07-22T06:14:43;6.13;;;2.08;;
65387;SDS011;51992;53.528;49.474;2022-07-22T06:17:09;5.50;;;1.92;;
65387;SDS011;51992;53.528;49.474;2022-07-22T06:19:34;4.18;;;1.83;;
65387;SDS011;51992;53.528;49.474;2022-07-22T06:22:00;6.32;;;2.22;;
65387;SDS011;51992;53.528;49.474;2022-07-22T06:24:26;5.72;;;2.47;;
65387;SDS011;51992;53.528;49.474;2022-07-22T06:26:52;4.18;;;2.17;;
65387;SDS011;51992;53.528;49.474;2022-07-22T06:29:18;11.38;;;2.72;;
65387;SDS011;51992;53.528;49.474;2022-07-22T06:31:43;9.32;;;2.38;;
65387;SDS011;51992;53.528;49.474;2022-07-22T06:34:09;9.52;;;2.50;;
65387;SDS011;51992;53.528;49.474;2022-07-22T06:36:35;13.27;;;2.58;;
65387;SDS011;51992;53.528;49.474;2022-07-22T06:39:01;9.00;;;3.00;;
65387;SDS011;51992;53.528;49.474;2022-07-22T06:41:27;14.15;;;3.25;;
65387;SDS011;51992;53.528;49.474;2022-07-22T06:43:52;17.15;;;3.25;;
65387;SDS011;51992;53.528;49.474;2022-07-22T06:46:18;6.10;;;2.58;;
65387;SDS011;51992;53.528;49.474;2022-07-22T06:48:44;11.15;;;3.13;;
65387;SDS011;51992;53.528;49.474;2022-07-22T06:51:10;18.17;;;3.20;;
65387;SDS011;51992;53.528;49.474;2022-07-22T06:53:36;14.38;;;3.13;;
65387;SDS011;51992;53.528;49.474;2022-07-22T06:56:01;8.23;;;2.50;;
65387;SDS011;51992;53.528;49.474;2022-07-22T06:58:27;20.02;;;3.80;;
65387;SDS011;51992;53.528;49.474;2022-07-22T07:00:53;12.27;;;3.35;;
65387;SDS011;51992;53.528;49.474;2022-07-22T07:03:19;7.43;;;2.42;;
65387;SDS011;51992;53.528;49.474;2022-07-22T07:05:44;12.93;;;3.20;;
65387;SDS011;51992;53.528;49.474;2022-07-22T07:08:10;18.70;;;4.00;;
65387;SDS011;51992;53.528;49.474;2022-07-22T07:10:36;10.50;;;3.47;;
65387;SDS011;51992;53.528;49.474;2022-07-22T07:13:01;16.05;;;4.63;;
65387;SDS011;51992;53.528;49.474;2022-07-22T07:15:27;22.48;;;5.38;;
65387;SDS011;51992;53.528;49.474;2022-07-22T07:17:54;18.02;;;7.13;;
65387;SDS011;51992;53.528;49.474;2022-07-22T07:20:20;26.35;;;4.85;;
65387;SDS011;51992;53.528;49.474;2022-07-22T07:22:46;21.50;;;4.45;;
65387;SDS011;51992;53.528;49.474;2022-07-22T07:25:12;13.07;;;3.28;;
65387;SDS011;51992;53.528;49.474;2022-07-22T07:27:38;15.65;;;3.00;;
65387;SDS011;51992;53.528;49.474;2022-07-22T07:30:04;16.23;;;3.13;;
65387;SDS011;51992;53.528;49.474;2022-07-22T07:32:30;13.80;;;2.80;;
65387;SDS011;51992;53.528;49.474;2022-07-22T07:34:56;9.55;;;2.90;;
65387;SDS011;51992;53.528;49.474;2022-07-22T07:37:22;12.73;;;3.45;;
65387;SDS011;51992;53.528;49.474;2022-07-22T07:39:48;14.10;;;3.25;;
65387;SDS011;51992;53.528;49.474;2022-07-22T07:42:14;15.82;;;3.78;;
65387;SDS011;51992;53.528;49.474;2022-07-22T07:44:39;8.95;;;2.95;;
65387;SDS011;51992;53.528;49.474;2022-07-22T07:47:05;9.85;;;2.90;;
65387;SDS011;51992;53.528;49.474;2022-07-22T07:49:31;13.55;;;2.47;;
65387;SDS011;51992;53.528;49.474;2022-07-22T07:51:57;18.23;;;2.80;;
65387;SDS011;51992;53.528;49.474;2022-07-22T07:54:22;12.57;;;3.15;;
65387;SDS011;51992;53.528;49.474;2022-07-22T07:56:48;15.70;;;3.47;;
65387;SDS011;51992;53.528;49.474;2022-07-22T07:59:14;11.13;;;2.75;;
65387;SDS011;51992;53.528;49.474;2022-07-22T08:01:42;12.35;;;2.78;;
65387;SDS011;51992;53.528;49.474;2022-07-22T08:04:08;27.45;;;4.22;;
65387;SDS011;51992;53.528;49.474;2022-07-22T08:06:33;18.13;;;2.50;;
65387;SDS011;51992;53.528;49.474;2022-07-22T08:08:59;12.82;;;2.60;;
65387;SDS011;51992;53.528;49.474;2022-07-22T08:11:25;12.48;;;2.35;;
65387;SDS011;51992;53.528;49.474;2022-07-22T08:13:50;15.27;;;2.60;;
65387;SDS011;51992;53.528;49.474;2022-07-22T08:16:16;16.38;;;2.55;;
65387;SDS011;51992;53.528;49.474;2022-07-22T08:18:42;16.20;;;3.05;;
65387;SDS011;51992;53.528;49.474;2022-07-22T08:21:08;11.07;;;1.80;;
65387;SDS011;51992;53.528;49.474;2022-07-22T08:23:34;9.80;;;2.28;;
65387;SDS011;51992;53.528;49.474;2022-07-22T08:25:59;13.10;;;2.45;;
65387;SDS011;51992;53.528;49.474;2022-07-22T08:28:25;19.85;;;3.00;;
65387;SDS011;51992;53.528;49.474;2022-07-22T08:30:51;7.18;;;2.10;;
65387;SDS011;51992;53.528;49.474;2022-07-22T08:33:17;8.20;;;1.83;;
65387;SDS011;51992;53.528;49.474;2022-07-22T08:35:43;13.45;;;2.65;;
65387;SDS011;51992;53.528;49.474;2022-07-22T08:38:09;16.30;;;3.30;;
65387;SDS011;51992;53.528;49.474;2022-07-22T08:40:34;11.13;;;2.20;;
65387;SDS011;51992;53.528;49.474;2022-07-22T08:43:00;28.00;;;3.22;;
65387;SDS011;51992;53.528;49.474;2022-07-22T08:45:29;23.85;;;3.65;;
65387;SDS011;51992;53.528;49.474;2022-07-22T08:47:54;7.40;;;1.50;;
65387;SDS011;51992;53.528;49.474;2022-07-22T08:50:20;10.85;;;2.72;;
65387;SDS011;51992;53.528;49.474;2022-07-22T08:52:46;11.23;;;1.80;;
65387;SDS011;51992;53.528;49.474;2022-07-22T08:55:12;32.08;;;4.28;;
65387;SDS011;51992;53.528;49.474;2022-07-22T08:57:37;8.00;;;2.17;;
65387;SDS011;51992;53.528;49.474;2022-07-22T09:00:08;12.50;;;2.30;;
65387;SDS011;51992;53.528;49.474;2022-07-22T09:02:35;12.25;;;2.50;;
65387;SDS011;51992;53.528;49.474;2022-07-22T09:05:03;12.32;;;2.70;;
65387;SDS011;51992;53.528;49.474;2022-07-22T09:07:36;2.40;;;1.50;;
65387;SDS011;51992;53.528;49.474;2022-07-22T09:10:06;12.52;;;2.65;;
65387;SDS011;51992;53.528;49.474;2022-07-22T09:12:33;4.15;;;1.08;;
65387;SDS011;51992;53.528;49.474;2022-07-22T09:15:00;2.03;;;1.30;;
65387;SDS011;51992;53.528;49.474;2022-07-22T09:17:36;4.60;;;1.10;;
65387;SDS011;51992;53.528;49.474;2022-07-22T09:20:14;2.35;;;1.48;;
65387;SDS011;51992;53.528;49.474;2022-07-22T09:22:41;2.28;;;1.40;;
65387;SDS011;51992;53.528;49.474;2022-07-22T09:27:51;5.25;;;1.33;;
65387;SDS011;51992;53.528;49.474;2022-07-22T09:30:24;2.75;;;1.02;;
65387;SDS011;51992;53.528;49.474;2022-07-22T09:32:50;4.65;;;0.90;;
65387;SDS011;51992;53.528;49.474;2022-07-22T09:35:16;5.50;;;1.25;;
65387;SDS011;51992;53.528;49.474;2022-07-22T09:37:51;4.00;;;1.30;;
65387;SDS011;51992;53.528;49.474;2022-07-22T09:40:18;3.65;;;1.35;;
65387;SDS011;51992;53.528;49.474;2022-07-22T09:42:45;4.30;;;1.60;;
65387;SDS011;51992;53.528;49.474;2022-07-22T09:45:11;4.55;;;1.30;;
65387;SDS011;51992;53.528;49.474;2022-07-22T09:47:36;2.65;;;1.45;;
65387;SDS011;51992;53.528;49.474;2022-07-22T09:50:13;2.10;;;1.30;;
65387;SDS011;51992;53.528;49.474;2022-07-22T09:52:39;3.55;;;1.05;;
65387;SDS011;51992;53.528;49.474;2022-07-22T09:55:06;3.70;;;1.60;;
65387;SDS011;51992;53.528;49.474;2022-07-22T09:57:32;6.57;;;1.70;;
65387;SDS011;51992;53.528;49.474;2022-07-22T09:59:58;3.33;;;1.38;;
65387;SDS011;51992;53.528;49.474;2022-07-22T10:02:24;7.10;;;1.52;;
65387;SDS011;51992;53.528;49.474;2022-07-22T10:04:50;2.80;;;2.03;;
65387;SDS011;51992;53.528;49.474;2022-07-22T10:07:16;9.52;;;2.72;;
65387;SDS011;51992;53.528;49.474;2022-07-22T10:09:43;10.77;;;3.00;;
65387;SDS011;51992;53.528;49.474;2022-07-22T10:12:11;6.15;;;2.20;;
65387;SDS011;51992;53.528;49.474;2022-07-22T10:14:37;9.82;;;2.25;;
65387;SDS011;51992;53.528;49.474;2022-07-22T10:17:03;7.35;;;1.90;;
65387;SDS011;51992;53.528;49.474;2022-07-22T10:19:29;3.75;;;1.60;;
65387;SDS011;51992;53.528;49.474;2022-07-22T10:21:55;11.48;;;2.58;;
65387;SDS011;51992;53.528;49.474;2022-07-22T10:24:20;5.80;;;1.75;;
65387;SDS011;51992;53.528;49.474;2022-07-22T10:26:50;13.07;;;2.10;;
65387;SDS011;51992;53.528;49.474;2022-07-22T10:29:29;9.43;;;2.10;;
65387;SDS011;51992;53.528;49.474;2022-07-22T10:32:21;10.70;;;2.03;;
65387;SDS011;51992;53.528;49.474;2022-07-22T10:40:19;17.60;;;4.60;;
65387;SDS011;51992;53.528;49.474;2022-07-22T10:45:24;7.05;;;2.92;;
65387;SDS011;51992;53.528;49.474;2022-07-22T10:47:53;6.88;;;2.00;;
65387;SDS011;51992;53.528;49.474;2022-07-22T10:52:57;10.65;;;2.58;;
65387;SDS011;51992;53.528;49.474;2022-07-22T10:55:23;6.60;;;2.30;;
65387;SDS011;51992;53.528;49.474;2022-07-22T10:57:48;11.65;;;2.80;;
65387;SDS011;51992;53.528;49.474;2022-07-22T11:00:14;5.95;;;2.15;;
65387;SDS011;51992;53.528;49.474;2022-07-22T11:02:40;7.85;;;2.05;;
65387;SDS011;51992;53.528;49.474;2022-07-22T11:05:06;5.57;;;2.10;;
65387;SDS011;51992;53.528;49.474;2022-07-22T11:07:33;6.60;;;1.90;;
65387;SDS011;51992;53.528;49.474;2022-07-22T11:10:09;5.22;;;1.88;;
65387;SDS011;51992;53.528;49.474;2022-07-22T11:12:35;3.75;;;1.80;;
65387;SDS011;51992;53.528;49.474;2022-07-22T11:15:01;5.00;;;1.73;;
65387;SDS011;51992;53.528;49.474;2022-07-22T11:17:28;4.70;;;1.63;;
65387;SDS011;51992;53.528;49.474;2022-07-22T11:19:53;6.10;;;1.75;;
65387;SDS011;51992;53.528;49.474;2022-07-22T11:22:19;9.32;;;2.30;;
65387;SDS011;51992;53.528;49.474;2022-07-22T11:24:47;18.35;;;3.10;;
65387;SDS011;51992;53.528;49.474;2022-07-22T11:27:14;11.60;;;2.97;;
65387;SDS011;51992;53.528;49.474;2022-07-22T11:29:40;14.60;;;3.88;;
65387;SDS011;51992;53.528;49.474;2022-07-22T11:32:10;9.32;;;3.10;;
65387;SDS011;51992;53.528;49.474;2022-07-22T11:34:38;21.83;;;3.25;;
65387;SDS011;51992;53.528;49.474;2022-07-22T11:37:08;17.55;;;3.42;;
65387;SDS011;51992;53.528;49.474;2022-07-22T11:39:37;14.57;;;2.47;;
65387;SDS011;51992;53.528;49.474;2022-07-22T11:42:06;20.00;;;3.50;;
65387;SDS011;51992;53.528;49.474;2022-07-22T11:44:33;7.30;;;2.28;;
65387;SDS011;51992;53.528;49.474;2022-07-22T11:47:00;18.15;;;3.17;;
65387;SDS011;51992;53.528;49.474;2022-07-22T11:49:28;9.90;;;2.60;;
65387;SDS011;51992;53.528;49.474;2022-07-22T11:52:04;10.75;;;2.60;;
65387;SDS011;51992;53.528;49.474;2022-07-22T11:54:30;12.80;;;1.98;;
65387;SDS011;51992;53.528;49.474;2022-07-22T11:56:56;11.93;;;2.15;;
65387;SDS011;51992;53.528;49.474;2022-07-22T11:59:22;6.63;;;1.95;;
65387;SDS011;51992;53.528;49.474;2022-07-22T12:01:48;6.75;;;1.95;;
65387;SDS011;51992;53.528;49.474;2022-07-22T12:04:15;12.80;;;2.67;;
65387;SDS011;51992;53.528;49.474;2022-07-22T12:06:43;9.05;;;1.65;;
65387;SDS011;51992;53.528;49.474;2022-07-22T12:09:13;6.82;;;2.40;;
65387;SDS011;51992;53.528;49.474;2022-07-22T12:11:39;11.18;;;2.15;;
65387;SDS011;51992;53.528;49.474;2022-07-22T12:14:07;4.95;;;1.70;;
65387;SDS011;51992;53.528;49.474;2022-07-22T12:16:33;5.18;;;1.75;;
65387;SDS011;51992;53.528;49.474;2022-07-22T12:19:06;8.48;;;2.00;;
65387;SDS011;51992;53.528;49.474;2022-07-22T12:21:52;11.57;;;2.55;;
65387;SDS011;51992;53.528;49.474;2022-07-22T12:24:57;10.38;;;2.10;;
65387;SDS011;51992;53.528;49.474;2022-07-22T12:27:14;5.75;;;1.80;;
65387;SDS011;51992;53.528;49.474;2022-07-22T12:32:08;9.23;;;2.05;;
65387;SDS011;51992;53.528;49.474;2022-07-22T12:37:00;29.27;;;3.08;;
65387;SDS011;51992;53.528;49.474;2022-07-22T12:39:28;6.63;;;1.98;;
65387;SDS011;51992;53.528;49.474;2022-07-22T12:41:53;10.68;;;2.13;;
65387;SDS011;51992;53.528;49.474;2022-07-22T12:44:21;11.07;;;1.80;;
65387;SDS011;51992;53.528;49.474;2022-07-22T12:46:48;9.43;;;2.30;;
65387;SDS011;51992;53.528;49.474;2022-07-22T12:49:14;23.52;;;3.55;;
65387;SDS011;51992;53.528;49.474;2022-07-22T12:51:41;23.27;;;2.88;;
65387;SDS011;51992;53.528;49.474;2022-07-22T12:54:06;14.27;;;2.50;;
65387;SDS011;51992;53.528;49.474;2022-07-22T12:56:32;9.45;;;2.33;;
65387;SDS011;51992;53.528;49.474;2022-07-22T12:58:59;9.63;;;2.00;;
65387;SDS011;51992;53.528;49.474;2022-07-22T13:01:24;7.00;;;1.48;;
65387;SDS011;51992;53.528;49.474;2022-07-22T13:03:50;5.72;;;1.55;;
65387;SDS011;51992;53.528;49.474;2022-07-22T13:06:16;8.50;;;2.05;;
65387;SDS011;51992;53.528;49.474;2022-07-22T13:08:42;12.43;;;2.28;;
65387;SDS011;51992;53.528;49.474;2022-07-22T13:11:07;11.48;;;2.97;;
65387;SDS011;51992;53.528;49.474;2022-07-22T13:13:33;14.57;;;2.80;;
65387;SDS011;51992;53.528;49.474;2022-07-22T13:15:59;13.82;;;2.78;;
65387;SDS011;51992;53.528;49.474;2022-07-22T13:18:25;11.98;;;2.63;;
65387;SDS011;51992;53.528;49.474;2022-07-22T13:20:50;7.43;;;2.47;;
65387;SDS011;51992;53.528;49.474;2022-07-22T13:23:16;7.15;;;2.33;;
65387;SDS011;51992;53.528;49.474;2022-07-22T13:25:42;14.73;;;3.20;;
65387;SDS011;51992;53.528;49.474;2022-07-22T13:28:07;10.60;;;3.47;;
65387;SDS011;51992;53.528;49.474;2022-07-22T13:30:33;8.32;;;2.90;;
65387;SDS011;51992;53.528;49.474;2022-07-22T13:32:59;6.75;;;2.90;;
65387;SDS011;51992;53.528;49.474;2022-07-22T13:35:25;5.35;;;2.65;;
65387;SDS011;51992;53.528;49.474;2022-07-22T13:37:50;12.70;;;3.40;;
65387;SDS011;51992;53.528;49.474;2022-07-22T13:40:16;17.83;;;3.20;;
65387;SDS011;51992;53.528;49.474;2022-07-22T13:42:42;22.75;;;4.45;;
65387;SDS011;51992;53.528;49.474;2022-07-22T13:45:08;7.82;;;2.50;;
65387;SDS011;51992;53.528;49.474;2022-07-22T13:47:35;6.85;;;2.60;;
65387;SDS011;51992;53.528;49.474;2022-07-22T13:50:01;6.95;;;2.55;;
65387;SDS011;51992;53.528;49.474;2022-07-22T13:52:27;6.25;;;2.90;;
65387;SDS011;51992;53.528;49.474;2022-07-22T13:54:52;12.30;;;2.30;;
65387;SDS011;51992;53.528;49.474;2022-07-22T13:57:18;23.23;;;2.92;;
65387;SDS011;51992;53.528;49.474;2022-07-22T13:59:44;18.67;;;3.88;;
65387;SDS011;51992;53.528;49.474;2022-07-22T14:02:10;14.60;;;2.70;;
65387;SDS011;51992;53.528;49.474;2022-07-22T14:04:36;12.77;;;2.42;;
65387;SDS011;51992;53.528;49.474;2022-07-22T14:07:02;29.45;;;4.63;;
65387;SDS011;51992;53.528;49.474;2022-07-22T14:09:28;21.42;;;3.88;;
65387;SDS011;51992;53.528;49.474;2022-07-22T14:11:53;38.35;;;4.90;;
65387;SDS011;51992;53.528;49.474;2022-07-22T14:14:19;23.00;;;3.72;;
65387;SDS011;51992;53.528;49.474;2022-07-22T14:16:45;16.17;;;2.97;;
65387;SDS011;51992;53.528;49.474;2022-07-22T14:19:12;9.82;;;2.25;;
65387;SDS011;51992;53.528;49.474;2022-07-22T14:21:39;27.50;;;4.75;;
65387;SDS011;51992;53.528;49.474;2022-07-22T14:24:05;11.63;;;2.30;;
65387;SDS011;51992;53.528;49.474;2022-07-22T14:26:32;2.03;;;1.70;;
65387;SDS011;51992;53.528;49.474;2022-07-22T14:28:58;7.05;;;2.28;;
65387;SDS011;51992;53.528;49.474;2022-07-22T14:31:24;6.85;;;1.58;;
65387;SDS011;51992;53.528;49.474;2022-07-22T14:33:49;14.10;;;2.55;;
65387;SDS011;51992;53.528;49.474;2022-07-22T14:36:15;11.00;;;2.30;;
65387;SDS011;51992;53.528;49.474;2022-07-22T14:38:41;7.20;;;1.70;;
65387;SDS011;51992;53.528;49.474;2022-07-22T14:41:07;5.68;;;2.45;;
65387;SDS011;51992;53.528;49.474;2022-07-22T14:43:33;6.78;;;1.67;;
65387;SDS011;51992;53.528;49.474;2022-07-22T14:45:59;2.17;;;1.52;;